Orbital elements of HIMAWARI-3 AKM
| Launched | 1 August 1984 |
| Flight ended | – |
| Launch site | Tanegashima Space Center, Japan |
| Owner | Japan |
| NORAD ID | 22266 |
| Date fetched |
Epoch osculation |
Inc. [°] |
Ecc. | RA asc node [hr] |
Arg Peri. [°] |
Mean anom [°] |
Mean motion [rev/day] |
Abs. mag |
| Date fetched |
Epoch osculation |
Inc. [°] |
Ecc. | RA asc node [hr] |
Arg Peri. [°] |
Mean anom [°] |
Mean motion [rev/day] |
Abs. mag |
| 2026 May 08 17:57 | 2026 May 05 11:04:12 | 9.5880 | 0.01381 | 21.0952 | 110.7320 | 239.1632 | 0.99746 | – |
| 2026 May 07 17:58 | 2026 May 05 11:04:12 | 9.5880 | 0.01381 | 21.0952 | 110.7320 | 239.1632 | 0.99746 | – |
| 2026 May 06 17:57 | 2026 May 05 11:04:12 | 9.5880 | 0.01381 | 21.0952 | 110.7320 | 239.1632 | 0.99746 | – |
| 2026 May 05 17:57 | 2026 May 05 11:04:12 | 9.5880 | 0.01381 | 21.0952 | 110.7320 | 239.1632 | 0.99746 | – |
| 2026 May 04 17:57 | 2026 Apr 30 11:19:39 | 9.5971 | 0.01380 | 21.0971 | 110.5219 | 239.1632 | 0.99746 | – |
| 2026 May 03 17:57 | 2026 Apr 30 11:19:39 | 9.5971 | 0.01380 | 21.0971 | 110.5219 | 239.1632 | 0.99746 | – |
| 2026 May 02 17:57 | 2026 Apr 30 11:19:39 | 9.5971 | 0.01380 | 21.0971 | 110.5219 | 239.1632 | 0.99746 | – |
| 2026 May 01 17:56 | 2026 Apr 30 11:19:39 | 9.5971 | 0.01380 | 21.0971 | 110.5219 | 239.1632 | 0.99746 | – |
| 2026 Apr 30 17:56 | 2026 Apr 30 11:19:39 | 9.5971 | 0.01380 | 21.0971 | 110.5219 | 239.1632 | 0.99746 | – |
| 2026 Apr 29 17:57 | 2026 Apr 24 11:38:11 | 9.6078 | 0.01379 | 21.0995 | 110.2777 | 239.1632 | 0.99746 | – |
| 2026 Apr 28 17:56 | 2026 Apr 24 11:38:11 | 9.6078 | 0.01379 | 21.0995 | 110.2777 | 239.1632 | 0.99746 | – |
| 2026 Apr 27 17:58 | 2026 Apr 24 11:38:11 | 9.6078 | 0.01379 | 21.0995 | 110.2777 | 239.1632 | 0.99746 | – |
| 2026 Apr 26 17:58 | 2026 Apr 24 11:38:11 | 9.6078 | 0.01379 | 21.0995 | 110.2777 | 239.1632 | 0.99746 | – |
| 2026 Apr 25 17:58 | 2026 Apr 24 11:38:11 | 9.6078 | 0.01379 | 21.0995 | 110.2777 | 239.1632 | 0.99746 | – |
| 2026 Apr 24 17:59 | 2026 Apr 24 11:38:11 | 9.6078 | 0.01379 | 21.0995 | 110.2777 | 239.1632 | 0.99746 | – |
| 2026 Apr 23 17:57 | 2026 Apr 19 11:53:38 | 9.6166 | 0.01377 | 21.1016 | 110.0268 | 239.1632 | 0.99746 | – |
| 2026 Apr 22 17:57 | 2026 Apr 19 11:53:38 | 9.6166 | 0.01377 | 21.1016 | 110.0268 | 239.1632 | 0.99746 | – |
| 2026 Apr 21 17:57 | 2026 Apr 19 11:53:38 | 9.6166 | 0.01377 | 21.1016 | 110.0268 | 239.1632 | 0.99746 | – |
| 2026 Apr 20 17:57 | 2026 Apr 19 11:53:38 | 9.6166 | 0.01377 | 21.1016 | 110.0268 | 239.1632 | 0.99746 | – |
| 2026 Apr 19 17:58 | 2026 Apr 19 11:53:38 | 9.6166 | 0.01377 | 21.1016 | 110.0268 | 239.1632 | 0.99746 | – |
| 2026 Apr 18 17:56 | 2026 Apr 12 22:32:02 | 9.6280 | 0.01374 | 21.1042 | 109.7324 | 239.1632 | 0.99746 | – |
| 2026 Apr 16 17:57 | 2026 Apr 12 22:32:02 | 9.6280 | 0.01374 | 21.1042 | 109.7324 | 239.1632 | 0.99746 | – |
| 2026 Apr 14 17:57 | 2026 Apr 12 22:32:02 | 9.6280 | 0.01374 | 21.1042 | 109.7324 | 239.1632 | 0.99746 | – |
| 2026 Apr 13 17:57 | 2026 Apr 12 22:32:02 | 9.6280 | 0.01374 | 21.1042 | 109.7324 | 239.1632 | 0.99746 | – |
| 2026 Apr 12 17:57 | 2026 Apr 08 10:44:43 | 9.6360 | 0.01372 | 21.1060 | 109.5598 | 239.1632 | 0.99746 | – |
| 2026 Apr 11 17:57 | 2026 Apr 08 10:44:43 | 9.6360 | 0.01372 | 21.1060 | 109.5598 | 239.1632 | 0.99746 | – |